createdAt,value
2022-12-31T00:00:03.540Z,10.30
2022-12-31T00:01:03.421Z,10.30
2022-12-31T00:02:03.378Z,10.30
2022-12-31T00:03:03.391Z,10.30
2022-12-31T00:04:03.443Z,10.30
2022-12-31T00:05:03.364Z,10.30
2022-12-31T00:06:03.356Z,10.30
2022-12-31T00:07:03.254Z,10.30
2022-12-31T00:08:03.258Z,10.30
2022-12-31T00:09:03.213Z,10.30
2022-12-31T00:10:03.169Z,10.30
2022-12-31T00:11:03.111Z,10.30
2022-12-31T00:12:02.984Z,10.30
2022-12-31T00:13:03.048Z,10.30
2022-12-31T00:14:03.256Z,10.30
2022-12-31T00:15:03.214Z,10.30
2022-12-31T00:16:08.318Z,10.30
2022-12-31T00:17:03.438Z,10.30
2022-12-31T00:18:03.282Z,10.30
2022-12-31T00:19:03.371Z,10.30
2022-12-31T00:20:03.215Z,10.20
2022-12-31T00:21:03.096Z,10.20
2022-12-31T00:22:03.150Z,10.20
2022-12-31T00:23:03.176Z,10.30
2022-12-31T00:24:03.102Z,10.30
2022-12-31T00:25:03.107Z,10.30
2022-12-31T00:26:02.990Z,10.30
2022-12-31T00:27:03.091Z,10.30
2022-12-31T00:28:03.010Z,10.30
2022-12-31T00:29:03.069Z,10.30
2022-12-31T00:30:04.882Z,10.30
2022-12-31T00:31:02.923Z,10.30
2022-12-31T00:32:03.419Z,10.30
2022-12-31T00:33:03.373Z,10.30
2022-12-31T00:34:03.241Z,10.30
2022-12-31T00:35:03.258Z,10.30
2022-12-31T00:36:03.156Z,10.30
2022-12-31T00:37:03.137Z,10.30
2022-12-31T00:38:03.023Z,10.40
2022-12-31T00:39:03.034Z,10.40
2022-12-31T00:40:02.963Z,10.40
2022-12-31T00:41:02.925Z,10.40
2022-12-31T00:42:02.956Z,10.40
2022-12-31T00:43:02.893Z,10.40
2022-12-31T00:44:02.942Z,10.40
2022-12-31T00:45:02.905Z,10.40
2022-12-31T00:46:02.846Z,10.50
2022-12-31T00:47:02.733Z,10.50
2022-12-31T00:48:02.582Z,10.50
2022-12-31T00:49:03.561Z,10.50
2022-12-31T00:50:03.599Z,10.50
2022-12-31T00:51:03.551Z,10.50
2022-12-31T00:52:03.534Z,10.50
2022-12-31T00:53:03.489Z,10.50
2022-12-31T00:54:03.356Z,10.50
2022-12-31T00:55:03.475Z,10.50
2022-12-31T00:56:03.434Z,10.60
2022-12-31T00:57:03.442Z,10.60
2022-12-31T00:58:03.265Z,10.60
2022-12-31T00:59:03.319Z,10.60
2022-12-31T01:00:03.440Z,10.60
2022-12-31T01:01:03.386Z,10.60
2022-12-31T01:02:03.311Z,10.70
2022-12-31T01:03:03.312Z,10.70
2022-12-31T01:04:03.157Z,10.70
2022-12-31T01:05:03.131Z,10.70
2022-12-31T01:06:03.089Z,10.70
2022-12-31T01:07:03.102Z,10.70
2022-12-31T01:08:03.138Z,10.70
2022-12-31T01:09:03.157Z,10.80
2022-12-31T01:10:03.384Z,10.70
2022-12-31T01:11:03.222Z,10.80
2022-12-31T01:12:03.382Z,10.80
2022-12-31T01:13:03.327Z,10.80
2022-12-31T01:14:03.218Z,10.80
2022-12-31T01:15:03.131Z,10.80
2022-12-31T01:16:03.090Z,10.80
2022-12-31T01:17:02.989Z,10.80
2022-12-31T01:18:02.990Z,10.80
2022-12-31T01:19:02.925Z,10.80
2022-12-31T01:20:02.939Z,10.80
2022-12-31T01:21:02.842Z,10.90
2022-12-31T01:22:02.719Z,10.90
2022-12-31T01:23:02.760Z,10.90
2022-12-31T01:24:02.639Z,10.90
2022-12-31T01:25:02.734Z,10.90
2022-12-31T01:26:02.690Z,10.90
2022-12-31T01:27:02.649Z,10.90
2022-12-31T01:28:02.808Z,10.90
2022-12-31T01:29:02.817Z,10.90
2022-12-31T01:30:02.844Z,11.00
2022-12-31T01:31:02.871Z,11.00
2022-12-31T01:32:02.812Z,11.00
2022-12-31T01:33:02.705Z,11.00
2022-12-31T01:34:02.719Z,11.00
2022-12-31T01:35:02.772Z,11.00
2022-12-31T01:36:02.825Z,11.00
2022-12-31T01:37:02.703Z,11.00
2022-12-31T01:38:02.590Z,11.10
2022-12-31T01:39:02.648Z,11.10
2022-12-31T01:40:03.544Z,11.10
2022-12-31T01:41:03.553Z,11.10
2022-12-31T01:42:03.489Z,11.10
2022-12-31T01:43:03.561Z,11.10
2022-12-31T01:44:03.460Z,11.10
2022-12-31T01:45:03.432Z,11.10
2022-12-31T01:46:03.392Z,11.10
2022-12-31T01:47:03.244Z,11.10
2022-12-31T01:48:03.140Z,11.10
2022-12-31T01:49:03.122Z,11.10
2022-12-31T01:50:03.038Z,11.20
2022-12-31T01:51:03.087Z,11.20
2022-12-31T01:52:03.156Z,11.20
2022-12-31T01:53:03.023Z,11.20
2022-12-31T01:54:02.930Z,11.20
2022-12-31T01:55:02.937Z,11.20
2022-12-31T01:56:03.001Z,11.30
2022-12-31T01:57:02.904Z,11.30
2022-12-31T01:58:02.805Z,11.30
2022-12-31T01:59:02.685Z,11.30
2022-12-31T02:00:02.646Z,11.30
2022-12-31T02:01:03.597Z,11.30
2022-12-31T02:02:03.685Z,11.30
2022-12-31T02:03:03.497Z,11.30
2022-12-31T02:04:03.493Z,11.30
2022-12-31T02:05:03.500Z,11.40
2022-12-31T02:06:03.573Z,11.40
2022-12-31T02:07:03.459Z,11.40
2022-12-31T02:08:03.387Z,11.40
2022-12-31T02:09:03.427Z,11.40
2022-12-31T02:10:03.304Z,11.40
2022-12-31T02:11:03.289Z,11.40
2022-12-31T02:12:03.183Z,11.40
2022-12-31T02:13:03.087Z,11.50
2022-12-31T02:14:03.144Z,11.40
2022-12-31T02:15:03.049Z,11.50
2022-12-31T02:16:03.190Z,11.40
2022-12-31T02:17:03.181Z,11.50
2022-12-31T02:18:03.028Z,11.40
2022-12-31T02:19:02.927Z,11.50
2022-12-31T02:20:02.903Z,11.50
2022-12-31T02:21:02.984Z,11.50
2022-12-31T02:22:02.829Z,11.50
2022-12-31T02:23:02.752Z,11.50
2022-12-31T02:24:02.712Z,11.50
2022-12-31T02:25:02.792Z,11.50
2022-12-31T02:26:02.750Z,11.50
2022-12-31T02:27:02.685Z,11.50
2022-12-31T02:28:02.947Z,11.50
2022-12-31T02:29:02.837Z,11.50
2022-12-31T02:30:03.017Z,11.50
2022-12-31T02:31:02.955Z,11.60
2022-12-31T02:32:03.259Z,11.50
2022-12-31T02:33:03.164Z,11.60
2022-12-31T02:34:03.196Z,11.60
2022-12-31T02:35:03.135Z,11.60
2022-12-31T02:36:03.171Z,11.60
2022-12-31T02:37:03.057Z,11.60
2022-12-31T02:38:03.132Z,11.60
2022-12-31T02:39:03.074Z,11.60
2022-12-31T02:40:03.167Z,11.60
2022-12-31T02:41:03.074Z,11.70
2022-12-31T02:42:03.145Z,11.70
2022-12-31T02:43:02.759Z,11.70
2022-12-31T02:44:02.776Z,11.70
2022-12-31T02:45:02.872Z,11.70
2022-12-31T02:46:02.856Z,11.70
2022-12-31T02:47:02.793Z,11.70
2022-12-31T02:48:02.857Z,11.70
2022-12-31T02:49:02.786Z,11.70
2022-12-31T02:50:02.737Z,11.70
2022-12-31T02:51:02.803Z,11.70
2022-12-31T02:52:02.719Z,11.70
2022-12-31T02:53:02.630Z,11.70
2022-12-31T02:54:02.652Z,11.80
2022-12-31T02:55:02.658Z,11.80
2022-12-31T02:56:03.583Z,11.80
2022-12-31T02:57:03.590Z,11.80
2022-12-31T02:58:03.519Z,11.80
2022-12-31T02:59:03.419Z,11.80
2022-12-31T03:00:03.376Z,11.80
2022-12-31T03:01:03.464Z,11.80
2022-12-31T03:02:03.372Z,11.80
2022-12-31T03:03:03.246Z,11.80
2022-12-31T03:04:03.258Z,11.80
2022-12-31T03:05:03.325Z,11.90
2022-12-31T03:06:03.196Z,11.90
2022-12-31T03:07:03.261Z,11.90
2022-12-31T03:08:03.272Z,11.90
2022-12-31T03:09:03.152Z,11.90
2022-12-31T03:10:03.114Z,11.90
2022-12-31T03:11:03.218Z,11.90
2022-12-31T03:12:03.197Z,11.90
2022-12-31T03:13:03.068Z,11.90
2022-12-31T03:14:03.092Z,11.90
2022-12-31T03:15:03.039Z,11.90
2022-12-31T03:16:03.209Z,11.90
2022-12-31T03:17:03.089Z,11.90
2022-12-31T03:18:03.089Z,11.90
2022-12-31T03:19:03.054Z,11.90
2022-12-31T03:20:02.949Z,11.90
2022-12-31T03:21:02.894Z,11.90
2022-12-31T03:22:03.367Z,11.90
2022-12-31T03:23:03.234Z,11.90
2022-12-31T03:24:03.040Z,11.90
2022-12-31T03:25:03.034Z,12.00
2022-12-31T03:26:02.959Z,12.00
2022-12-31T03:27:03.194Z,12.00
2022-12-31T03:28:03.073Z,12.00
2022-12-31T03:29:02.990Z,12.00
2022-12-31T03:30:02.995Z,12.00
2022-12-31T03:31:03.018Z,12.00
2022-12-31T03:32:02.939Z,12.00
2022-12-31T03:33:02.796Z,12.00
2022-12-31T03:34:02.791Z,12.00
2022-12-31T03:35:02.851Z,12.00
2022-12-31T03:36:02.903Z,12.00
2022-12-31T03:37:02.896Z,12.00
2022-12-31T03:38:02.840Z,12.00
2022-12-31T03:39:02.786Z,12.00
2022-12-31T03:40:02.809Z,12.00
2022-12-31T03:41:02.770Z,12.00
2022-12-31T03:42:02.663Z,12.00
2022-12-31T03:43:02.643Z,12.00
2022-12-31T03:44:03.532Z,12.00
2022-12-31T03:45:03.479Z,12.00
2022-12-31T03:46:03.526Z,12.00
2022-12-31T03:47:03.491Z,12.00
2022-12-31T03:48:03.525Z,12.00
2022-12-31T03:49:03.456Z,12.00
2022-12-31T03:50:03.395Z,12.00
2022-12-31T03:51:03.367Z,12.10
2022-12-31T03:52:03.326Z,12.10
2022-12-31T03:53:03.361Z,12.10
2022-12-31T03:54:03.300Z,12.00
2022-12-31T03:55:03.319Z,12.10
2022-12-31T03:56:03.205Z,12.10
2022-12-31T03:57:03.213Z,12.10
2022-12-31T03:58:03.188Z,12.10
2022-12-31T03:59:03.074Z,12.10
2022-12-31T04:00:03.106Z,12.10
2022-12-31T04:01:03.176Z,12.10
2022-12-31T04:02:03.294Z,12.10
2022-12-31T04:03:03.099Z,12.10
2022-12-31T04:04:03.052Z,12.10
2022-12-31T04:05:03.035Z,12.10
2022-12-31T04:06:03.087Z,12.10
2022-12-31T04:07:02.971Z,12.10
2022-12-31T04:08:03.075Z,12.10
2022-12-31T04:09:03.047Z,12.10
2022-12-31T04:10:02.948Z,12.10
2022-12-31T04:11:02.900Z,12.10
2022-12-31T04:12:02.850Z,12.10
2022-12-31T04:13:02.865Z,12.10
2022-12-31T04:14:02.845Z,12.10
2022-12-31T04:15:02.716Z,12.10
2022-12-31T04:16:02.832Z,12.10
2022-12-31T04:17:02.734Z,12.10
2022-12-31T04:18:02.665Z,12.10
2022-12-31T04:19:02.654Z,12.10
2022-12-31T04:20:02.641Z,12.10
2022-12-31T04:21:02.713Z,12.10
2022-12-31T04:22:02.667Z,12.10
2022-12-31T04:23:03.205Z,12.20
2022-12-31T04:24:03.088Z,12.20
2022-12-31T04:25:03.096Z,12.20
2022-12-31T04:26:03.055Z,12.20
2022-12-31T04:27:07.421Z,12.20
2022-12-31T04:28:03.029Z,12.20
2022-12-31T04:29:03.084Z,12.20
2022-12-31T04:30:03.030Z,12.20
2022-12-31T04:31:02.975Z,12.20
2022-12-31T04:32:02.980Z,12.20
2022-12-31T04:33:02.858Z,12.20
2022-12-31T04:34:02.845Z,12.20
2022-12-31T04:35:02.770Z,12.20
2022-12-31T04:36:02.689Z,12.20
2022-12-31T04:37:02.629Z,12.20
2022-12-31T04:38:03.605Z,12.20
2022-12-31T04:39:03.577Z,12.20
2022-12-31T04:40:06.068Z,12.20
2022-12-31T04:41:03.507Z,12.30
2022-12-31T04:42:03.574Z,12.30
2022-12-31T04:43:03.509Z,12.30
2022-12-31T04:44:03.381Z,12.30
2022-12-31T04:45:02.705Z,12.30
2022-12-31T04:46:02.724Z,12.40
2022-12-31T04:47:03.571Z,12.40
2022-12-31T04:48:02.683Z,12.40
2022-12-31T04:49:03.568Z,12.40
2022-12-31T04:50:03.433Z,12.40
2022-12-31T04:51:03.516Z,12.40
2022-12-31T04:52:03.459Z,12.40
2022-12-31T04:53:03.524Z,12.40
2022-12-31T04:54:03.522Z,12.40
2022-12-31T04:55:03.521Z,12.40
2022-12-31T04:56:03.545Z,12.40
2022-12-31T04:57:02.584Z,12.40
2022-12-31T04:58:03.646Z,12.40
2022-12-31T04:59:03.613Z,12.40
2022-12-31T05:00:03.502Z,12.40
2022-12-31T05:01:03.636Z,12.40
2022-12-31T05:02:03.652Z,12.50
2022-12-31T05:03:03.372Z,12.50
2022-12-31T05:04:03.341Z,12.50
2022-12-31T05:05:03.468Z,12.50
2022-12-31T05:06:03.454Z,12.50
2022-12-31T05:07:03.340Z,12.50
2022-12-31T05:08:03.417Z,12.50
2022-12-31T05:09:03.443Z,12.50
2022-12-31T05:10:03.416Z,12.50
2022-12-31T05:11:03.398Z,12.60
2022-12-31T05:12:03.425Z,12.60
2022-12-31T05:13:03.327Z,12.60
2022-12-31T05:14:03.273Z,12.60
2022-12-31T05:15:03.195Z,12.60
2022-12-31T05:16:03.259Z,12.60
2022-12-31T05:17:03.236Z,12.60
2022-12-31T05:18:03.139Z,12.60
2022-12-31T05:19:03.126Z,12.60
2022-12-31T05:20:03.039Z,12.60
2022-12-31T05:21:02.955Z,12.60
2022-12-31T05:22:02.890Z,12.60
2022-12-31T05:23:02.942Z,12.60
2022-12-31T05:24:02.848Z,12.60
2022-12-31T05:25:03.056Z,12.60
2022-12-31T05:26:02.899Z,12.60
2022-12-31T05:27:02.880Z,12.70
2022-12-31T05:28:02.785Z,12.70
2022-12-31T05:29:02.922Z,12.70
2022-12-31T05:30:02.870Z,12.70
2022-12-31T05:31:02.791Z,12.70
2022-12-31T05:32:02.865Z,12.70
2022-12-31T05:33:02.758Z,12.70
2022-12-31T05:34:02.748Z,12.70
2022-12-31T05:35:02.693Z,12.70
2022-12-31T05:36:02.837Z,12.70
2022-12-31T05:37:02.823Z,12.70
2022-12-31T05:38:02.878Z,12.70
2022-12-31T05:39:02.771Z,12.70
2022-12-31T05:40:02.709Z,12.70
2022-12-31T05:41:02.748Z,12.70
2022-12-31T05:42:02.812Z,12.70
2022-12-31T05:43:02.682Z,12.70
2022-12-31T05:44:02.761Z,12.70
2022-12-31T05:45:02.644Z,12.70
2022-12-31T05:46:02.622Z,12.70
2022-12-31T05:47:03.549Z,12.70
2022-12-31T05:48:03.694Z,12.70
2022-12-31T05:49:03.555Z,12.70
2022-12-31T05:50:03.491Z,12.70
2022-12-31T05:51:03.371Z,12.70
2022-12-31T05:52:03.424Z,12.80
2022-12-31T05:53:03.335Z,12.70
2022-12-31T05:54:03.355Z,12.70
2022-12-31T05:55:03.203Z,12.80
2022-12-31T05:56:03.533Z,12.70
2022-12-31T05:57:03.465Z,12.80
2022-12-31T05:58:03.492Z,12.80
2022-12-31T05:59:03.509Z,12.80
2022-12-31T06:00:03.467Z,12.80
2022-12-31T06:01:03.485Z,12.80
2022-12-31T06:02:02.732Z,12.80
2022-12-31T06:03:02.982Z,12.80
2022-12-31T06:04:02.929Z,12.80
2022-12-31T06:05:02.722Z,12.80
2022-12-31T06:06:02.678Z,12.80
2022-12-31T06:07:02.603Z,12.80
2022-12-31T06:08:02.641Z,12.80
2022-12-31T06:09:02.749Z,12.80
2022-12-31T06:10:02.649Z,12.80
2022-12-31T06:11:02.681Z,12.90
2022-12-31T06:12:03.542Z,12.80
2022-12-31T06:13:03.516Z,12.80
2022-12-31T06:14:03.459Z,12.80
2022-12-31T06:15:03.335Z,12.80
2022-12-31T06:16:03.333Z,12.80
2022-12-31T06:17:03.275Z,12.80
2022-12-31T06:18:03.332Z,12.80
2022-12-31T06:19:03.231Z,12.80
2022-12-31T06:20:06.088Z,12.90
2022-12-31T06:21:03.175Z,12.90
2022-12-31T06:22:03.185Z,12.90
2022-12-31T06:23:03.054Z,12.90
2022-12-31T06:24:02.943Z,12.90
2022-12-31T06:25:02.937Z,12.90
2022-12-31T06:26:02.773Z,12.90
2022-12-31T06:27:02.698Z,12.90
2022-12-31T06:28:02.554Z,12.90
2022-12-31T06:29:02.570Z,12.90
2022-12-31T06:30:03.642Z,12.90
2022-12-31T06:31:02.735Z,12.90
2022-12-31T06:32:02.723Z,12.90
2022-12-31T06:33:02.590Z,12.90
2022-12-31T06:34:03.541Z,12.90
2022-12-31T06:35:03.473Z,12.90
2022-12-31T06:36:02.694Z,12.90
2022-12-31T06:37:03.551Z,12.90
2022-12-31T06:38:03.523Z,12.90
2022-12-31T06:39:03.353Z,12.90
2022-12-31T06:40:03.325Z,12.90
2022-12-31T06:41:03.309Z,12.90
2022-12-31T06:42:03.127Z,13.00
2022-12-31T06:43:03.199Z,12.90
2022-12-31T06:44:03.152Z,13.00
2022-12-31T06:45:03.016Z,13.00
2022-12-31T06:46:03.048Z,13.00
2022-12-31T06:47:02.873Z,13.00
2022-12-31T06:48:02.874Z,13.00
2022-12-31T06:49:02.785Z,13.00
2022-12-31T06:50:02.595Z,13.00
2022-12-31T06:51:03.558Z,13.00
2022-12-31T06:52:03.404Z,13.00
2022-12-31T06:53:03.322Z,13.00
2022-12-31T06:54:03.289Z,13.00
2022-12-31T06:55:03.237Z,13.10
2022-12-31T06:56:03.150Z,13.10
2022-12-31T06:57:03.147Z,13.10
2022-12-31T06:58:03.089Z,13.10
2022-12-31T06:59:02.986Z,13.10
2022-12-31T07:00:02.969Z,13.10
2022-12-31T07:01:02.859Z,13.10
2022-12-31T07:02:02.927Z,13.10
2022-12-31T07:03:02.734Z,13.10
2022-12-31T07:04:02.678Z,13.20
2022-12-31T07:05:02.737Z,13.20
2022-12-31T07:06:02.635Z,13.20
2022-12-31T07:07:03.517Z,13.20
2022-12-31T07:08:03.548Z,13.20
2022-12-31T07:09:03.447Z,13.20
2022-12-31T07:10:03.393Z,13.20
2022-12-31T07:11:03.272Z,13.20
2022-12-31T07:12:03.174Z,13.30
2022-12-31T07:13:03.188Z,13.30
2022-12-31T07:14:03.230Z,13.30
2022-12-31T07:15:03.168Z,13.30
2022-12-31T07:16:03.071Z,13.30
2022-12-31T07:17:02.983Z,13.30
2022-12-31T07:18:02.953Z,13.30
2022-12-31T07:19:02.836Z,13.30
2022-12-31T07:20:02.791Z,13.30
2022-12-31T07:21:02.830Z,13.30
2022-12-31T07:22:02.735Z,13.30
2022-12-31T07:23:02.646Z,13.40
2022-12-31T07:24:03.527Z,13.40
2022-12-31T07:25:03.570Z,13.40
2022-12-31T07:26:03.397Z,13.40
2022-12-31T07:27:03.316Z,13.40
2022-12-31T07:28:03.484Z,13.40
2022-12-31T07:29:02.577Z,13.40
2022-12-31T07:30:03.479Z,13.40
2022-12-31T07:31:03.501Z,13.40
2022-12-31T07:32:03.455Z,13.40
2022-12-31T07:33:03.325Z,13.40
2022-12-31T07:34:03.285Z,13.40
2022-12-31T07:35:03.180Z,13.40
2022-12-31T07:36:03.049Z,13.40
2022-12-31T07:37:02.943Z,13.40
2022-12-31T07:38:02.961Z,13.40
2022-12-31T07:39:02.962Z,13.40
2022-12-31T07:40:02.887Z,13.40
2022-12-31T07:41:09.228Z,13.40
2022-12-31T07:42:02.877Z,13.40
2022-12-31T07:43:02.991Z,13.40
2022-12-31T07:44:02.887Z,13.40
2022-12-31T07:45:02.811Z,13.40
2022-12-31T07:46:02.736Z,13.40
2022-12-31T07:47:02.576Z,13.40
2022-12-31T07:48:03.600Z,13.40
2022-12-31T07:49:03.438Z,13.40
2022-12-31T07:50:03.445Z,13.50
2022-12-31T07:51:03.404Z,13.40
2022-12-31T07:52:03.271Z,13.50
2022-12-31T07:53:03.486Z,13.50
2022-12-31T07:54:04.055Z,13.50
2022-12-31T07:55:02.864Z,13.50
2022-12-31T07:56:02.799Z,13.50
2022-12-31T07:57:02.834Z,13.50
2022-12-31T07:58:02.990Z,13.50
2022-12-31T07:59:03.275Z,13.50
2022-12-31T08:00:03.371Z,13.50
2022-12-31T08:01:03.231Z,13.50
2022-12-31T08:02:03.319Z,13.50
2022-12-31T08:03:03.269Z,13.50
2022-12-31T08:04:03.205Z,13.50
2022-12-31T08:05:03.195Z,13.50
2022-12-31T08:06:03.169Z,13.50
2022-12-31T08:07:03.037Z,13.50
2022-12-31T08:08:02.960Z,13.50
2022-12-31T08:09:03.009Z,13.50
2022-12-31T08:10:02.894Z,13.50
2022-12-31T08:11:02.876Z,13.50
2022-12-31T08:12:02.900Z,13.50
2022-12-31T08:13:02.932Z,13.50
2022-12-31T08:14:02.897Z,13.50
2022-12-31T08:15:02.907Z,13.50
2022-12-31T08:16:02.887Z,13.50
2022-12-31T08:17:02.812Z,13.50
2022-12-31T08:18:02.764Z,13.50
2022-12-31T08:19:02.725Z,13.50
2022-12-31T08:20:02.641Z,13.50
2022-12-31T08:21:03.630Z,13.50
2022-12-31T08:22:03.546Z,13.60
2022-12-31T08:23:03.537Z,13.60
2022-12-31T08:24:03.464Z,13.60
2022-12-31T08:25:03.321Z,13.60
2022-12-31T08:26:03.335Z,13.60
2022-12-31T08:27:03.206Z,13.60
2022-12-31T08:28:03.148Z,13.60
2022-12-31T08:29:03.181Z,13.60
2022-12-31T08:30:03.184Z,13.60
2022-12-31T08:31:03.129Z,13.60
2022-12-31T08:32:03.136Z,13.60
2022-12-31T08:33:03.203Z,13.60
2022-12-31T08:34:05.928Z,13.60
2022-12-31T08:35:03.015Z,13.60
2022-12-31T08:36:02.955Z,13.60
2022-12-31T08:37:03.038Z,13.60
2022-12-31T08:38:02.869Z,13.60
2022-12-31T08:39:02.929Z,13.60
2022-12-31T08:40:02.842Z,13.60
2022-12-31T08:41:02.701Z,13.70
2022-12-31T08:42:02.781Z,13.70
2022-12-31T08:43:02.688Z,13.70
2022-12-31T08:44:03.614Z,13.70
2022-12-31T08:45:02.679Z,13.70
2022-12-31T08:46:03.509Z,13.70
2022-12-31T08:47:03.429Z,13.70
2022-12-31T08:48:03.469Z,13.70
2022-12-31T08:49:03.417Z,13.70
2022-12-31T08:50:03.394Z,13.70
2022-12-31T08:51:03.327Z,13.70
2022-12-31T08:52:03.346Z,13.70
2022-12-31T08:53:03.324Z,13.70
2022-12-31T08:54:03.262Z,13.70
2022-12-31T08:55:03.244Z,13.70
2022-12-31T08:56:03.219Z,13.70
2022-12-31T08:57:03.128Z,13.80
2022-12-31T08:58:03.053Z,13.70
2022-12-31T08:59:03.051Z,13.80
2022-12-31T09:00:03.077Z,13.80
2022-12-31T09:01:03.046Z,13.80
2022-12-31T09:02:03.121Z,13.80
2022-12-31T09:03:02.965Z,13.80
2022-12-31T09:04:02.942Z,13.80
2022-12-31T09:05:02.841Z,13.80
2022-12-31T09:06:02.827Z,13.80
2022-12-31T09:07:02.827Z,13.80
2022-12-31T09:08:02.785Z,13.80
2022-12-31T09:09:03.575Z,13.80
2022-12-31T09:10:03.542Z,13.80
2022-12-31T09:11:03.415Z,13.80
2022-12-31T09:12:03.400Z,13.80
2022-12-31T09:13:03.269Z,13.80
2022-12-31T09:14:03.254Z,13.80
2022-12-31T09:15:03.145Z,13.80
2022-12-31T09:16:03.030Z,13.80
2022-12-31T09:17:03.055Z,13.80
2022-12-31T09:18:02.973Z,13.80
2022-12-31T09:19:02.883Z,13.80
2022-12-31T09:20:02.750Z,13.90
2022-12-31T09:21:02.840Z,13.90
2022-12-31T09:22:02.792Z,13.90
2022-12-31T09:23:02.640Z,13.90
2022-12-31T09:24:07.574Z,13.90
2022-12-31T09:25:02.629Z,13.90
2022-12-31T09:26:03.533Z,13.90
2022-12-31T09:27:03.537Z,13.90
2022-12-31T09:28:03.447Z,13.90
2022-12-31T09:29:03.359Z,13.90
2022-12-31T09:30:03.200Z,13.90
2022-12-31T09:31:03.181Z,13.90
2022-12-31T09:32:03.135Z,13.90
2022-12-31T09:33:03.016Z,13.90
2022-12-31T09:34:03.075Z,14.00
2022-12-31T09:35:03.084Z,14.00
2022-12-31T09:36:03.059Z,14.00
2022-12-31T09:37:03.023Z,14.00
2022-12-31T09:38:06.523Z,14.00
2022-12-31T09:39:02.848Z,14.00
2022-12-31T09:40:02.720Z,14.00
2022-12-31T09:41:02.772Z,14.00
2022-12-31T09:42:03.461Z,14.10
2022-12-31T09:43:03.396Z,14.10
2022-12-31T09:44:03.309Z,14.10
2022-12-31T09:45:03.410Z,14.10
2022-12-31T09:46:03.299Z,14.10
2022-12-31T09:47:03.239Z,14.10
2022-12-31T09:48:03.300Z,14.10
2022-12-31T09:49:03.080Z,14.10
2022-12-31T09:50:03.179Z,14.20
2022-12-31T09:51:03.113Z,14.20
2022-12-31T09:52:03.134Z,14.20
2022-12-31T09:53:03.109Z,14.20
2022-12-31T09:54:03.027Z,14.20
2022-12-31T09:55:03.270Z,14.20
2022-12-31T09:56:03.121Z,14.20
2022-12-31T09:57:03.181Z,14.20
2022-12-31T09:58:03.153Z,14.20
2022-12-31T09:59:02.938Z,14.30
2022-12-31T10:00:03.189Z,14.30
2022-12-31T10:01:03.298Z,14.30
2022-12-31T10:02:03.515Z,14.30
2022-12-31T10:03:03.357Z,14.30
2022-12-31T10:04:03.188Z,14.30
2022-12-31T10:05:03.341Z,14.30
2022-12-31T10:06:03.323Z,14.30
2022-12-31T10:07:03.322Z,14.40
2022-12-31T10:08:03.424Z,14.40
2022-12-31T10:09:03.303Z,14.40
2022-12-31T10:10:03.413Z,14.40
2022-12-31T10:11:03.338Z,14.40
2022-12-31T10:12:03.345Z,14.40
2022-12-31T10:13:03.289Z,14.40
2022-12-31T10:14:03.403Z,14.40
2022-12-31T10:15:03.283Z,14.40
2022-12-31T10:16:03.200Z,14.40
2022-12-31T10:17:03.441Z,14.40
2022-12-31T10:18:03.366Z,14.40
2022-12-31T10:19:03.239Z,14.40
2022-12-31T10:20:03.136Z,14.50
2022-12-31T10:21:03.165Z,14.40
2022-12-31T10:22:03.062Z,14.40
2022-12-31T10:23:03.135Z,14.40
2022-12-31T10:24:02.993Z,14.50
2022-12-31T10:25:02.951Z,14.50
2022-12-31T10:26:02.822Z,14.50
2022-12-31T10:27:02.861Z,14.50
2022-12-31T10:28:02.819Z,14.50
2022-12-31T10:29:02.750Z,14.50
2022-12-31T10:30:02.616Z,14.50
2022-12-31T10:31:02.759Z,14.50
2022-12-31T10:32:03.613Z,14.50
2022-12-31T10:33:03.573Z,14.50
2022-12-31T10:34:03.490Z,14.50
2022-12-31T10:35:03.435Z,14.50
2022-12-31T10:36:03.303Z,14.50
2022-12-31T10:37:03.317Z,14.50
2022-12-31T10:38:03.317Z,14.50
2022-12-31T10:39:07.411Z,14.60
2022-12-31T10:40:03.239Z,14.60
2022-12-31T10:41:03.187Z,14.60
2022-12-31T10:42:03.204Z,14.60
2022-12-31T10:43:03.213Z,14.60
2022-12-31T10:44:03.233Z,14.60
2022-12-31T10:45:03.215Z,14.60
2022-12-31T10:46:03.268Z,14.60
2022-12-31T10:47:03.075Z,14.60
2022-12-31T10:48:03.227Z,14.60
2022-12-31T10:49:03.117Z,14.70
2022-12-31T10:50:03.548Z,14.70
2022-12-31T10:51:03.316Z,14.70
2022-12-31T10:52:03.361Z,14.70
2022-12-31T10:53:03.331Z,14.70
2022-12-31T10:54:03.200Z,14.70
2022-12-31T10:55:03.323Z,14.70
2022-12-31T10:56:03.188Z,14.70
2022-12-31T10:57:03.082Z,14.80
2022-12-31T10:58:04.391Z,14.80
2022-12-31T10:59:02.891Z,14.80
2022-12-31T11:00:02.794Z,14.80
2022-12-31T11:01:03.005Z,14.80
2022-12-31T11:02:05.175Z,14.80
2022-12-31T11:03:03.127Z,14.80
2022-12-31T11:04:02.846Z,14.80
2022-12-31T11:05:03.068Z,14.80
2022-12-31T11:06:03.116Z,14.80
2022-12-31T11:07:03.111Z,14.80
2022-12-31T11:08:03.132Z,14.80
2022-12-31T11:09:03.180Z,14.80
2022-12-31T11:10:03.281Z,14.80
2022-12-31T11:11:03.222Z,14.80
2022-12-31T11:12:03.250Z,14.80
2022-12-31T11:13:03.266Z,14.80
2022-12-31T11:14:03.215Z,14.80
2022-12-31T11:15:03.197Z,14.80
2022-12-31T11:16:03.258Z,14.90
2022-12-31T11:17:03.307Z,14.90
2022-12-31T11:18:03.522Z,14.90
2022-12-31T11:19:02.724Z,14.90
2022-12-31T11:20:02.754Z,14.90
2022-12-31T11:21:02.811Z,14.90
2022-12-31T11:22:02.784Z,14.90
2022-12-31T11:23:02.709Z,14.90
2022-12-31T11:24:02.761Z,14.90
2022-12-31T11:25:02.670Z,15.00
2022-12-31T11:26:03.593Z,15.00
2022-12-31T11:27:02.629Z,15.00
2022-12-31T11:28:02.901Z,15.00
2022-12-31T11:29:02.895Z,15.00
2022-12-31T11:30:02.862Z,15.00
2022-12-31T11:31:02.952Z,15.10
2022-12-31T11:32:02.689Z,15.10
2022-12-31T11:33:03.557Z,15.10
2022-12-31T11:34:02.677Z,15.10
2022-12-31T11:35:02.664Z,15.10
2022-12-31T11:36:03.554Z,15.10
2022-12-31T11:37:03.568Z,15.10
2022-12-31T11:38:03.603Z,15.20
2022-12-31T11:39:03.585Z,15.20
2022-12-31T11:40:03.483Z,15.20
2022-12-31T11:41:03.574Z,15.20
2022-12-31T11:42:03.595Z,15.20
2022-12-31T11:43:03.480Z,15.30
2022-12-31T11:44:03.475Z,15.30
2022-12-31T11:45:03.364Z,15.30
2022-12-31T11:46:03.233Z,15.30
2022-12-31T11:47:03.279Z,15.30
2022-12-31T11:48:28.946Z,15.40
2022-12-31T11:49:03.268Z,15.40
2022-12-31T11:50:03.141Z,15.50
2022-12-31T11:51:03.119Z,15.50
2022-12-31T11:52:02.993Z,15.50
2022-12-31T11:53:02.923Z,15.60
2022-12-31T11:54:02.830Z,15.60
2022-12-31T11:55:02.799Z,15.70
2022-12-31T11:56:02.797Z,15.70
2022-12-31T11:57:02.766Z,15.70
2022-12-31T11:58:02.840Z,15.80
2022-12-31T11:59:07.819Z,15.80
2022-12-31T12:00:02.763Z,15.80
2022-12-31T12:01:02.770Z,15.80
2022-12-31T12:02:02.770Z,15.80
2022-12-31T12:03:02.697Z,15.80
2022-12-31T12:04:03.639Z,15.80
2022-12-31T12:05:10.241Z,15.80
2022-12-31T12:06:03.522Z,15.80
2022-12-31T12:07:03.424Z,15.80
2022-12-31T12:08:03.419Z,15.90
2022-12-31T12:09:03.387Z,15.90
2022-12-31T12:10:03.496Z,15.90
2022-12-31T12:11:03.500Z,15.90
2022-12-31T12:12:03.469Z,15.90
2022-12-31T12:13:03.437Z,15.90
2022-12-31T12:14:03.312Z,15.90
2022-12-31T12:15:03.380Z,15.90
2022-12-31T12:16:03.200Z,16.00
2022-12-31T12:17:05.364Z,15.90
2022-12-31T12:18:03.276Z,16.00
2022-12-31T12:19:03.258Z,16.00
2022-12-31T12:20:03.250Z,16.00
2022-12-31T12:21:03.075Z,16.00
2022-12-31T12:22:03.032Z,16.00
2022-12-31T12:23:03.006Z,16.00
2022-12-31T12:24:03.016Z,16.00
2022-12-31T12:25:02.949Z,16.00
2022-12-31T12:26:02.871Z,16.00
2022-12-31T12:27:02.907Z,16.00
2022-12-31T12:28:02.716Z,16.00
2022-12-31T12:29:02.649Z,16.00
2022-12-31T12:30:02.655Z,16.10
2022-12-31T12:31:03.568Z,16.10
2022-12-31T12:32:03.483Z,16.10
2022-12-31T12:33:03.445Z,16.10
2022-12-31T12:34:03.344Z,16.10
2022-12-31T12:35:03.348Z,16.10
2022-12-31T12:36:03.186Z,16.10
2022-12-31T12:37:03.082Z,16.10
2022-12-31T12:38:03.159Z,16.10
2022-12-31T12:39:03.053Z,16.10
2022-12-31T12:40:03.171Z,16.10
2022-12-31T12:41:02.956Z,16.10
2022-12-31T12:42:03.025Z,16.10
2022-12-31T12:43:02.930Z,16.10
2022-12-31T12:44:02.906Z,16.10
2022-12-31T12:45:02.823Z,16.10
2022-12-31T12:46:02.707Z,16.10
2022-12-31T12:47:02.612Z,16.10
2022-12-31T12:48:03.544Z,16.10
2022-12-31T12:49:03.520Z,16.10
2022-12-31T12:50:03.487Z,16.10
2022-12-31T12:51:03.431Z,16.10
2022-12-31T12:52:03.395Z,16.10